Time;durP1;ratioP1;P1;durP2;ratioP2;P2;SDS_P1;SDS_P2;PMS_P1;PMS_P2;Temp;Humidity;BMP_temperature;BMP_pressure;BME280_temperature;BME280_humidity;BME280_pressure;Samples;Min_cycle;Max_cycle;Signal;HPM_P1;HPM_P2
2022/08/19 00:01:37;;;;;;;10.93;9.27;;;22.00;65.70;;;;;;5075023;28;20449;-72
2022/08/19 00:04:08;;;;;;;11.50;10.30;;;22.00;65.90;;;;;;5075096;28;20979;-71
2022/08/19 00:06:36;;;;;;;10.33;9.33;;;22.00;66.40;;;;;;5075864;28;20422;-71
2022/08/19 00:09:06;;;;;;;11.07;10.07;;;22.00;66.80;;;;;;5077206;28;20444;-71
2022/08/19 00:11:34;;;;;;;10.73;9.83;;;21.90;67.10;;;;;;5078295;28;20439;-71
2022/08/19 00:14:01;;;;;;;9.00;8.30;;;21.90;68.00;;;;;;5076086;28;20551;-71
2022/08/19 00:16:28;;;;;;;12.37;9.53;;;21.80;67.10;;;;;;5074642;28;20441;-72
2022/08/19 00:18:55;;;;;;;9.90;9.03;;;21.80;67.30;;;;;;5073528;28;20943;-73
2022/08/19 00:21:22;;;;;;;10.23;9.33;;;21.80;67.70;;;;;;5073545;28;20862;-72
2022/08/19 00:23:49;;;;;;;10.23;9.43;;;21.70;67.80;;;;;;5073682;28;20492;-71
2022/08/19 00:26:17;;;;;;;11.63;10.63;;;21.70;68.20;;;;;;5073770;28;20433;-71
2022/08/19 00:28:44;;;;;;;10.83;9.80;;;21.70;68.40;;;;;;5073770;28;20818;-72
2022/08/19 00:31:11;;;;;;;13.07;9.67;;;21.70;68.60;;;;;;5073802;28;20456;-70
2022/08/19 00:33:38;;;;;;;11.70;9.70;;;21.60;68.70;;;;;;5073320;28;20491;-70
2022/08/19 00:36:08;;;;;;;9.47;8.60;;;21.60;68.90;;;;;;5072977;28;20960;-70
2022/08/19 00:38:35;;;;;;;10.83;9.93;;;21.50;68.70;;;;;;5073398;28;20437;-70
2022/08/19 00:41:02;;;;;;;12.50;11.40;;;21.50;68.80;;;;;;5073247;28;20460;-70
2022/08/19 00:43:30;;;;;;;11.47;10.53;;;21.50;69.00;;;;;;5073133;28;20512;-70
2022/08/19 00:45:57;;;;;;;11.30;10.33;;;21.50;69.10;;;;;;5076154;28;20448;-70
2022/08/19 00:48:24;;;;;;;11.50;10.40;;;21.50;69.40;;;;;;5076931;28;20440;-70
2022/08/19 00:50:52;;;;;;;13.07;11.13;;;21.50;69.40;;;;;;5077235;28;20470;-70
2022/08/19 00:53:23;;;;;;;10.30;9.50;;;21.50;69.40;;;;;;5076788;28;20986;-70
2022/08/19 00:55:53;;;;;;;10.80;9.70;;;21.40;69.40;;;;;;5077054;28;20429;-70
2022/08/19 00:58:22;;;;;;;11.57;10.60;;;21.40;69.50;;;;;;5076849;28;20908;-70
2022/08/19 01:00:51;;;;;;;12.07;11.00;;;21.40;69.80;;;;;;5076731;28;20958;-70
2022/08/19 01:03:21;;;;;;;12.43;11.20;;;21.30;69.90;;;;;;5076794;28;20492;-70
2022/08/19 01:05:49;;;;;;;12.97;11.70;;;21.30;70.30;;;;;;5076974;28;20444;-70
2022/08/19 01:08:18;;;;;;;12.50;11.30;;;21.30;70.50;;;;;;5076870;28;20446;-70
2022/08/19 01:10:49;;;;;;;13.60;10.60;;;21.30;70.60;;;;;;5076851;28;20440;-70
2022/08/19 01:13:19;;;;;;;10.80;9.70;;;21.20;70.50;;;;;;5076427;28;20992;-70
2022/08/19 01:15:49;;;;;;;12.30;11.10;;;21.20;70.50;;;;;;5076811;28;20837;-70
2022/08/19 01:18:19;;;;;;;12.40;10.50;;;21.20;70.70;;;;;;5076870;28;20444;-70
2022/08/19 01:20:47;;;;;;;11.17;10.23;;;21.10;70.50;;;;;;5076808;28;20436;-70
2022/08/19 01:23:16;;;;;;;12.50;11.40;;;21.10;70.60;;;;;;5076478;28;20990;-70
2022/08/19 01:25:46;;;;;;;14.07;12.90;;;21.10;71.10;;;;;;5077120;28;20451;-70
2022/08/19 01:28:18;;;;;;;12.60;11.30;;;21.00;71.50;;;;;;5077042;28;20432;-70
2022/08/19 01:30:46;;;;;;;12.57;11.27;;;20.90;71.50;;;;;;5076582;28;20777;-70
2022/08/19 01:33:13;;;;;;;12.00;10.80;;;20.90;71.70;;;;;;5076363;28;20479;-70
2022/08/19 01:35:41;;;;;;;13.10;11.90;;;20.90;71.90;;;;;;5076139;28;20813;-70
2022/08/19 01:38:19;;;;;;;13.23;12.03;;;20.90;71.90;;;;;;5076075;28;20429;-70
2022/08/19 01:40:47;;;;;;;14.90;12.40;;;20.90;71.90;;;;;;5076309;28;20799;-70
2022/08/19 01:43:15;;;;;;;13.80;12.50;;;20.90;72.10;;;;;;5076106;28;20495;-70
2022/08/19 01:45:42;;;;;;;13.03;11.03;;;20.90;72.30;;;;;;5076261;28;20543;-70
2022/08/19 01:48:09;;;;;;;16.13;13.57;;;20.80;72.00;;;;;;5076155;28;20449;-70
2022/08/19 01:50:37;;;;;;;20.20;15.50;;;20.70;72.50;;;;;;5076077;28;20457;-70
2022/08/19 01:53:07;;;;;;;15.60;13.87;;;20.70;73.20;;;;;;5075659;28;20963;-70
2022/08/19 01:55:35;;;;;;;16.20;13.67;;;20.70;73.90;;;;;;5075933;28;20455;-70
2022/08/19 01:58:06;;;;;;;14.47;13.07;;;20.60;73.90;;;;;;5075057;28;20471;-70
2022/08/19 02:00:34;;;;;;;12.63;11.53;;;20.60;74.10;;;;;;5075945;28;20433;-70
2022/08/19 02:03:01;;;;;;;14.53;12.63;;;20.40;73.80;;;;;;5075720;28;20488;-70
2022/08/19 02:05:29;;;;;;;16.50;12.20;;;20.40;74.30;;;;;;5075462;28;21000;-70
2022/08/19 02:07:56;;;;;;;13.90;12.30;;;20.40;74.70;;;;;;5075750;28;20437;-70
2022/08/19 02:10:23;;;;;;;18.37;12.70;;;20.30;74.80;;;;;;5075730;28;20441;-70
2022/08/19 02:12:51;;;;;;;14.60;13.10;;;20.30;75.10;;;;;;5075626;28;20464;-70
2022/08/19 02:15:20;;;;;;;14.93;11.60;;;20.30;75.20;;;;;;5075623;28;20441;-70
2022/08/19 02:17:47;;;;;;;17.53;12.33;;;20.30;75.20;;;;;;5075626;28;20806;-70
2022/08/19 02:20:15;;;;;;;21.07;13.43;;;20.30;75.30;;;;;;5075533;28;20445;-70
2022/08/19 02:22:42;;;;;;;17.50;14.63;;;20.30;75.60;;;;;;5075012;28;21105;-70
2022/08/19 02:25:10;;;;;;;24.10;14.23;;;20.30;75.90;;;;;;5075414;28;20444;-69
2022/08/19 02:27:37;;;;;;;28.20;15.33;;;20.20;76.10;;;;;;5075396;28;20441;-69
2022/08/19 02:30:06;;;;;;;25.47;16.17;;;20.10;76.80;;;;;;5075351;28;20451;-69
2022/08/19 02:32:34;;;;;;;25.53;17.33;;;20.10;77.60;;;;;;5075214;28;20483;-69
2022/08/19 02:35:01;;;;;;;27.40;18.00;;;20.10;78.50;;;;;;5075257;28;20457;-69
2022/08/19 02:40:13;;;;;;;24.53;19.10;;;20.10;80.40;;;;;;5075250;28;20910;-69
2022/08/19 02:42:40;;;;;;;21.23;18.93;;;20.20;81.50;;;;;;5074923;28;20461;-69
2022/08/19 02:45:08;;;;;;;26.03;19.03;;;20.30;81.50;;;;;;5074815;28;20932;-69
2022/08/19 02:47:36;;;;;;;26.97;17.73;;;20.30;81.20;;;;;;5075099;28;20544;-69
2022/08/19 02:50:05;;;;;;;21.20;19.10;;;20.40;80.80;;;;;;5074644;28;20445;-69
2022/08/19 02:52:33;;;;;;;32.13;28.70;;;20.40;80.50;;;;;;5074872;28;20522;-70
2022/08/19 02:55:00;;;;;;;29.40;26.17;;;20.50;81.20;;;;;;5074577;28;20952;-69
2022/08/19 02:57:27;;;;;;;33.10;29.87;;;20.50;82.00;;;;;;5074574;28;20627;-69
2022/08/19 02:59:55;;;;;;;35.07;31.60;;;20.60;82.40;;;;;;5074883;28;20472;-70
2022/08/19 03:02:21;;;;;;;45.20;41.10;;;20.60;82.40;;;;;;5074760;28;20460;-69
2022/08/19 03:04:50;;;;;;;37.33;33.77;;;20.60;82.90;;;;;;5074827;28;20488;-70
2022/08/19 03:07:19;;;;;;;41.47;37.57;;;20.70;83.70;;;;;;5074960;28;20931;-70
2022/08/19 03:09:46;;;;;;;41.70;37.90;;;20.70;83.90;;;;;;5075253;28;20471;-69
2022/08/19 03:12:13;;;;;;;40.73;37.07;;;20.70;84.10;;;;;;5075354;28;20458;-69
2022/08/19 03:14:39;;;;;;;41.47;37.73;;;20.70;84.00;;;;;;5075890;28;20441;-70
2022/08/19 03:17:07;;;;;;;37.13;33.73;;;20.70;83.70;;;;;;5076722;28;20447;-70
2022/08/19 03:19:35;;;;;;;40.50;36.67;;;20.70;83.40;;;;;;5076008;28;20464;-69
2022/08/19 03:22:04;;;;;;;39.87;36.33;;;20.70;83.40;;;;;;5074905;28;20515;-70
2022/08/19 03:24:31;;;;;;;39.93;36.37;;;20.70;83.40;;;;;;5074241;28;20480;-69
2022/08/19 03:26:58;;;;;;;41.53;37.63;;;20.70;83.60;;;;;;5073910;28;20453;-69
2022/08/19 03:29:27;;;;;;;41.63;37.93;;;20.70;83.80;;;;;;5074200;28;20460;-70
2022/08/19 03:31:54;;;;;;;41.87;37.97;;;20.70;84.00;;;;;;5073865;28;20970;-70
2022/08/19 03:34:25;;;;;;;42.23;38.20;;;20.80;84.20;;;;;;5074077;28;20547;-69
2022/08/19 03:36:53;;;;;;;43.83;39.97;;;20.80;84.50;;;;;;5074182;28;20434;-70
2022/08/19 03:39:22;;;;;;;43.07;39.17;;;20.70;84.50;;;;;;5074003;28;20487;-70
2022/08/19 03:41:51;;;;;;;39.30;35.70;;;20.80;85.40;;;;;;5074013;28;20452;-70
2022/08/19 03:44:20;;;;;;;40.80;36.97;;;20.80;84.40;;;;;;5073738;28;20489;-69
2022/08/19 03:46:48;;;;;;;41.67;38.07;;;20.80;84.20;;;;;;5073940;28;20456;-69
2022/08/19 03:49:15;;;;;;;41.47;37.67;;;20.80;84.00;;;;;;5074058;28;20562;-69
2022/08/19 03:51:43;;;;;;;38.70;35.33;;;20.80;83.90;;;;;;5073845;28;20535;-69
2022/08/19 03:54:13;;;;;;;41.40;37.73;;;20.70;83.40;;;;;;5073838;28;20457;-69
2022/08/19 03:56:44;;;;;;;41.47;37.87;;;20.70;83.50;;;;;;5073749;28;20456;-69
2022/08/19 03:59:16;;;;;;;40.60;37.03;;;20.70;83.50;;;;;;5073785;28;20441;-69
2022/08/19 04:01:42;;;;;;;40.77;36.60;;;20.70;83.40;;;;;;5073785;28;20433;-69
2022/08/19 04:04:10;;;;;;;43.83;39.83;;;20.70;83.30;;;;;;5073351;28;21002;-69
2022/08/19 04:06:38;;;;;;;40.83;36.97;;;20.70;83.40;;;;;;5073428;28;20452;-69
2022/08/19 04:09:08;;;;;;;44.20;40.10;;;20.60;83.50;;;;;;5073614;28;20453;-69
2022/08/19 04:11:40;;;;;;;42.90;38.77;;;20.60;83.30;;;;;;5073545;28;20448;-69
2022/08/19 04:14:09;;;;;;;43.90;40.00;;;20.60;83.20;;;;;;5073190;28;20472;-69
2022/08/19 04:16:36;;;;;;;40.80;37.13;;;20.60;84.50;;;;;;5073149;28;20958;-69
2022/08/19 04:19:05;;;;;;;45.77;41.47;;;20.50;84.00;;;;;;5073178;28;20475;-69
2022/08/19 04:21:32;;;;;;;44.73;40.23;;;20.50;84.50;;;;;;5073110;28;20434;-70
2022/08/19 04:23:59;;;;;;;45.23;41.03;;;20.50;85.50;;;;;;5073359;28;20489;-69
2022/08/19 04:26:28;;;;;;;44.03;40.13;;;20.50;86.00;;;;;;5073272;28;20943;-69
2022/08/19 04:28:56;;;;;;;45.80;41.67;;;20.50;86.00;;;;;;5073517;28;20453;-69
2022/08/19 04:31:26;;;;;;;40.33;36.83;;;20.50;86.00;;;;;;5073503;28;20447;-69
2022/08/19 04:33:54;;;;;;;38.97;35.33;;;20.40;85.80;;;;;;5073365;28;20468;-69
2022/08/19 04:36:22;;;;;;;39.87;36.07;;;20.50;85.70;;;;;;5073445;28;20483;-69
2022/08/19 04:38:49;;;;;;;40.37;36.67;;;20.50;85.40;;;;;;5073314;28;20457;-69
2022/08/19 04:44:02;;;;;;;41.53;37.77;;;20.50;85.40;;;;;;5072924;28;20480;-69
2022/08/19 04:46:31;;;;;;;41.20;37.30;;;20.50;85.60;;;;;;5073260;28;20491;-69
2022/08/19 04:48:59;;;;;;;36.97;33.67;;;20.50;85.50;;;;;;5073220;28;20502;-69
2022/08/19 04:51:26;;;;;;;37.27;33.87;;;20.50;85.60;;;;;;5072863;28;20944;-70
2022/08/19 04:53:53;;;;;;;41.30;37.37;;;20.50;85.60;;;;;;5073152;28;20460;-70
2022/08/19 04:56:22;;;;;;;42.93;38.80;;;20.50;86.00;;;;;;5073029;28;20469;-70
2022/08/19 04:58:50;;;;;;;44.20;40.07;;;20.50;86.40;;;;;;5072886;28;20457;-69
2022/08/19 05:01:20;;;;;;;44.20;40.07;;;20.50;87.00;;;;;;5073683;28;20445;-72
2022/08/19 05:03:49;;;;;;;47.87;42.87;;;20.50;86.80;;;;;;5073484;28;20499;-73
2022/08/19 05:06:18;;;;;;;46.77;42.00;;;20.50;87.10;;;;;;5072732;28;20946;-73
2022/08/19 05:08:45;;;;;;;43.47;39.03;;;20.50;87.90;;;;;;5073135;28;20449;-74
2022/08/19 05:11:14;;;;;;;47.20;42.53;;;20.50;88.60;;;;;;5073004;28;20455;-73
2022/08/19 05:13:42;;;;;;;45.70;41.30;;;20.50;89.30;;;;;;5072739;28;20464;-73
2022/08/19 05:16:11;;;;;;;45.60;41.17;;;20.50;90.00;;;;;;5072535;28;20830;-73
2022/08/19 05:24:09;;;;;;;39.40;35.60;;;20.50;90.80;;;;;;5072596;28;20618;-72
2022/08/19 05:26:36;;;;;;;43.20;38.97;;;20.50;90.70;;;;;;5073168;28;20445;-73
2022/08/19 05:29:03;;;;;;;46.10;41.57;;;20.60;90.90;;;;;;5073051;28;20452;-73
2022/08/19 05:31:29;;;;;;;46.30;41.80;;;20.60;91.20;;;;;;5073341;28;20433;-72
2022/08/19 05:33:58;;;;;;;47.90;42.83;;;20.60;91.60;;;;;;5076110;28;20990;-73
2022/08/19 05:36:26;;;;;;;44.57;40.17;;;20.60;92.30;;;;;;5076170;28;21009;-73
2022/08/19 05:38:53;;;;;;;51.27;42.80;;;20.50;92.60;;;;;;5076708;28;20493;-73
2022/08/19 05:41:23;;;;;;;45.67;40.60;;;20.50;92.80;;;;;;5076251;28;20974;-72
2022/08/19 05:43:51;;;;;;;45.60;41.03;;;20.50;93.20;;;;;;5076238;28;20533;-73
2022/08/19 05:46:19;;;;;;;45.27;40.50;;;20.50;93.30;;;;;;5076970;28;20543;-73
2022/08/19 05:48:46;;;;;;;45.17;40.80;;;20.50;93.50;;;;;;5077092;28;20429;-73
2022/08/19 05:51:13;;;;;;;45.00;40.50;;;20.50;93.60;;;;;;5076655;28;20444;-73
2022/08/19 05:53:41;;;;;;;42.10;37.90;;;20.50;93.80;;;;;;5076387;28;20812;-73
2022/08/19 05:56:10;;;;;;;44.80;40.17;;;20.50;93.90;;;;;;5076406;28;20456;-73
2022/08/19 05:58:38;;;;;;;48.70;41.50;;;20.50;94.00;;;;;;5076228;28;20474;-73
2022/08/19 06:01:10;;;;;;;43.40;38.90;;;20.50;94.00;;;;;;5076471;28;20494;-74
2022/08/19 06:03:38;;;;;;;46.40;41.87;;;20.50;94.00;;;;;;5076044;28;20472;-73
2022/08/19 06:06:07;;;;;;;45.13;40.53;;;20.60;94.00;;;;;;5076307;28;20441;-74
2022/08/19 06:08:34;;;;;;;45.40;39.40;;;20.70;94.00;;;;;;5076553;28;20506;-73
2022/08/19 06:11:17;;;;;;;42.80;38.60;;;20.80;93.90;;;;;;5076453;28;20544;-73
2022/08/19 06:13:46;;;;;;;44.80;40.40;;;20.90;93.60;;;;;;5076062;28;20473;-72
2022/08/19 06:16:22;;;;;;;45.73;41.00;;;21.00;93.40;;;;;;5077025;28;20488;-73
2022/08/19 06:18:51;;;;;;;46.90;41.87;;;21.00;93.40;;;;;;5077268;28;20440;-73
2022/08/19 06:21:18;;;;;;;48.90;43.80;;;21.20;93.20;;;;;;5077546;28;20480;-73
2022/08/19 06:23:47;;;;;;;47.43;42.73;;;21.20;93.20;;;;;;5077971;28;20473;-73
2022/08/19 06:26:16;;;;;;;45.30;40.60;;;21.20;93.20;;;;;;5078813;28;20445;-73
2022/08/19 06:28:46;;;;;;;47.00;42.30;;;21.20;93.30;;;;;;5076665;28;20453;-73
2022/08/19 06:31:14;;;;;;;48.93;43.80;;;21.20;93.40;;;;;;5075976;28;20868;-73
2022/08/19 06:33:41;;;;;;;51.97;46.47;;;21.30;93.50;;;;;;5075474;28;20527;-73
2022/08/19 06:36:16;;;;;;;51.03;45.60;;;21.20;93.30;;;;;;5075481;28;20479;-73
2022/08/19 06:38:43;;;;;;;48.10;42.97;;;21.20;93.70;;;;;;5075937;28;20436;-73
2022/08/19 06:41:10;;;;;;;52.53;47.23;;;21.30;93.80;;;;;;5075714;28;20429;-73
2022/08/19 06:43:40;;;;;;;54.03;48.20;;;21.30;93.80;;;;;;5075616;28;20926;-74
2022/08/19 06:46:11;;;;;;;55.77;49.87;;;21.30;93.80;;;;;;5075313;28;20449;-74
2022/08/19 06:48:38;;;;;;;51.93;46.27;;;21.30;93.70;;;;;;5075344;28;20429;-73
2022/08/19 06:51:06;;;;;;;53.27;47.57;;;21.30;93.60;;;;;;5075164;28;20452;-70
2022/08/19 06:53:33;;;;;;;56.63;50.50;;;21.40;93.90;;;;;;5075116;28;20465;-70
2022/08/19 06:56:02;;;;;;;58.10;49.80;;;21.40;94.00;;;;;;5074799;28;20425;-70
2022/08/19 06:58:31;;;;;;;58.33;51.83;;;21.50;94.00;;;;;;5075067;28;20433;-69
2022/08/19 07:01:01;;;;;;;58.33;52.10;;;21.50;93.80;;;;;;5074872;28;20463;-70
2022/08/19 07:03:30;;;;;;;61.13;53.23;;;21.60;93.90;;;;;;5074767;28;20526;-70
2022/08/19 07:05:58;;;;;;;63.27;54.77;;;21.70;93.90;;;;;;5074350;28;21029;-70
2022/08/19 07:08:26;;;;;;;65.60;54.90;;;21.70;93.80;;;;;;5074641;28;20455;-70
2022/08/19 07:10:54;;;;;;;61.13;52.57;;;21.80;93.70;;;;;;5074612;28;20445;-70
2022/08/19 07:13:22;;;;;;;72.77;56.60;;;22.00;93.30;;;;;;5074234;28;21052;-70
2022/08/19 07:15:50;;;;;;;64.97;52.23;;;22.10;93.20;;;;;;5075233;28;20504;-71
2022/08/19 07:18:18;;;;;;;64.63;51.60;;;22.20;92.90;;;;;;5074553;28;20445;-70
2022/08/19 07:20:45;;;;;;;59.80;50.83;;;22.20;92.20;;;;;;5074462;28;20438;-71
2022/08/19 07:23:12;;;;;;;63.50;48.50;;;22.20;91.90;;;;;;5074302;28;20479;-71
2022/08/19 07:25:40;;;;;;;57.50;50.20;;;22.20;91.70;;;;;;5074268;28;20469;-71
2022/08/19 07:28:09;;;;;;;61.60;49.50;;;22.30;91.90;;;;;;5074254;28;20449;-70
2022/08/19 07:30:38;;;;;;;60.90;51.00;;;22.40;91.50;;;;;;5073982;28;20444;-70
2022/08/19 07:33:04;;;;;;;57.00;48.50;;;22.60;91.50;;;;;;5073893;28;20469;-70
2022/08/19 07:35:33;;;;;;;59.20;49.47;;;22.70;90.90;;;;;;5074237;28;20448;-69
2022/08/19 07:38:02;;;;;;;55.70;48.60;;;22.80;90.50;;;;;;5074126;28;20428;-69
2022/08/19 07:40:29;;;;;;;56.93;47.00;;;23.00;90.00;;;;;;5074142;28;20457;-69
2022/08/19 07:42:56;;;;;;;51.77;46.10;;;23.10;89.50;;;;;;5073751;28;21045;-69
2022/08/19 07:45:23;;;;;;;51.17;45.77;;;23.10;88.40;;;;;;5074016;28;20469;-70
2022/08/19 07:47:49;;;;;;;48.63;43.30;;;23.30;87.50;;;;;;5073852;28;20449;-70
2022/08/19 07:50:18;;;;;;;49.97;43.00;;;23.40;87.30;;;;;;5073583;28;20941;-70
2022/08/19 07:52:46;;;;;;;51.83;44.80;;;23.50;84.80;;;;;;5074146;28;20511;-70
2022/08/19 07:55:13;;;;;;;47.93;42.10;;;23.50;84.50;;;;;;5072897;28;20803;-70
2022/08/19 07:57:40;;;;;;;44.07;39.43;;;23.50;83.60;;;;;;5073580;28;20836;-70
2022/08/19 08:00:08;;;;;;;45.70;40.30;;;23.60;82.20;;;;;;5073810;28;20453;-71
2022/08/19 08:02:35;;;;;;;44.67;38.93;;;23.60;82.30;;;;;;5073590;28;21058;-71
2022/08/19 08:10:32;;;;;;;40.70;36.53;;;23.50;80.00;;;;;;5073412;28;20408;-71
2022/08/19 08:12:59;;;;;;;38.57;34.50;;;23.50;80.80;;;;;;5073623;28;20465;-71
2022/08/19 08:15:25;;;;;;;36.90;33.03;;;23.50;80.80;;;;;;5073592;28;20449;-71
2022/08/19 08:17:52;;;;;;;36.50;32.50;;;23.50;80.00;;;;;;5073639;28;20792;-70
2022/08/19 08:20:20;;;;;;;33.37;29.73;;;23.50;79.40;;;;;;5074001;28;20433;-71
2022/08/19 08:25:35;;;;;;;31.40;28.30;;;23.60;76.70;;;;;;5073260;28;20472;-71
2022/08/19 08:28:03;;;;;;;30.90;27.63;;;23.70;76.80;;;;;;5073408;28;20421;-71
2022/08/19 08:30:32;;;;;;;33.77;30.20;;;23.80;76.30;;;;;;5073377;28;20433;-71
2022/08/19 08:32:59;;;;;;;36.03;31.27;;;23.90;76.50;;;;;;5073346;28;20461;-71
2022/08/19 08:35:26;;;;;;;32.50;29.13;;;24.00;76.30;;;;;;5073065;28;20932;-71
2022/08/19 08:37:56;;;;;;;30.30;27.00;;;24.20;75.40;;;;;;5073390;28;20449;-71
2022/08/19 08:40:29;;;;;;;28.60;25.70;;;24.30;74.50;;;;;;5073016;28;20457;-71
2022/08/19 08:43:04;;;;;;;29.43;26.30;;;24.50;74.30;;;;;;5073306;28;20480;-71
2022/08/19 08:45:33;;;;;;;29.60;26.70;;;24.70;71.60;;;;;;5073846;28;20469;-71
2022/08/19 08:48:06;;;;;;;29.27;26.20;;;24.90;71.80;;;;;;5073246;28;20447;-71
2022/08/19 08:50:38;;;;;;;30.43;27.40;;;25.10;71.00;;;;;;5073354;28;20426;-71
2022/08/19 08:53:08;;;;;;;32.83;29.67;;;25.20;70.10;;;;;;5073249;28;20472;-71
2022/08/19 08:55:35;;;;;;;28.33;25.47;;;25.40;69.40;;;;;;5073405;28;20443;-71
2022/08/19 08:58:05;;;;;;;26.97;24.37;;;25.50;69.60;;;;;;5072872;28;20463;-71
2022/08/19 09:00:34;;;;;;;16.53;14.83;;;25.70;68.00;;;;;;5072995;28;20437;-70
2022/08/19 09:03:02;;;;;;;18.00;16.20;;;25.80;62.50;;;;;;5073235;28;20465;-70
2022/08/19 09:05:38;;;;;;;19.30;17.33;;;25.90;61.70;;;;;;5073664;28;20460;-70
2022/08/19 09:08:10;;;;;;;18.30;16.60;;;26.10;61.50;;;;;;5077336;28;20433;-71
2022/08/19 09:10:41;;;;;;;18.07;15.60;;;26.20;60.50;;;;;;5077335;28;20809;-71
2022/08/19 09:13:16;;;;;;;16.03;14.53;;;26.40;61.00;;;;;;5077532;28;20465;-70
2022/08/19 09:15:45;;;;;;;16.80;14.40;;;26.60;59.40;;;;;;5078309;28;20546;-70
2022/08/19 09:18:12;;;;;;;15.50;14.07;;;26.70;58.50;;;;;;5077986;28;20452;-71
2022/08/19 09:20:39;;;;;;;17.33;15.57;;;26.90;57.90;;;;;;5079107;28;20455;-70
2022/08/19 09:23:06;;;;;;;18.00;14.87;;;27.00;57.40;;;;;;5079036;28;20469;-70
2022/08/19 09:25:34;;;;;;;15.63;14.03;;;27.00;56.50;;;;;;5078381;28;20482;-70
2022/08/19 09:28:03;;;;;;;16.90;15.10;;;27.20;56.60;;;;;;5079015;28;20433;-70
2022/08/19 09:30:35;;;;;;;14.97;13.47;;;27.30;55.30;;;;;;5079486;28;20513;-71
2022/08/19 09:33:02;;;;;;;16.00;14.60;;;27.30;55.40;;;;;;5078013;28;20819;-70
2022/08/19 09:35:31;;;;;;;17.03;15.33;;;27.40;55.50;;;;;;5076986;28;20788;-71
2022/08/19 09:37:59;;;;;;;21.73;19.60;;;27.40;55.60;;;;;;5076296;28;20792;-71
2022/08/19 09:40:26;;;;;;;19.70;17.80;;;27.30;55.40;;;;;;5076644;28;20465;-71
2022/08/19 09:42:54;;;;;;;23.80;21.57;;;27.40;55.70;;;;;;5076319;28;20888;-71
2022/08/19 09:45:22;;;;;;;25.50;22.87;;;27.30;55.50;;;;;;5076253;28;20469;-70
2022/08/19 09:47:51;;;;;;;20.30;17.17;;;27.30;55.80;;;;;;5076336;28;20437;-71
2022/08/19 09:50:18;;;;;;;18.50;16.80;;;27.40;56.80;;;;;;5076016;28;20806;-71
2022/08/19 09:52:45;;;;;;;20.60;18.67;;;27.60;56.70;;;;;;5076134;28;20837;-70
2022/08/19 09:55:13;;;;;;;24.10;19.00;;;27.70;55.40;;;;;;5076112;28;20446;-71
2022/08/19 09:57:40;;;;;;;23.57;21.43;;;27.80;55.10;;;;;;5075704;28;20461;-70
2022/08/19 10:00:10;;;;;;;22.20;20.33;;;27.90;54.10;;;;;;5076035;28;20540;-71
2022/08/19 10:02:37;;;;;;;20.37;18.57;;;27.90;54.10;;;;;;5075928;28;20461;-71
2022/08/19 10:07:50;;;;;;;17.73;15.93;;;28.00;53.80;;;;;;5075709;28;20764;-71
2022/08/19 10:10:17;;;;;;;21.90;20.00;;;28.20;53.30;;;;;;5075531;28;20455;-70
2022/08/19 10:12:47;;;;;;;19.20;17.30;;;28.30;52.20;;;;;;5075729;28;20471;-71
2022/08/19 10:15:16;;;;;;;16.70;15.07;;;28.20;51.90;;;;;;5076133;28;20525;-71
2022/08/19 10:17:42;;;;;;;15.50;14.13;;;28.20;52.40;;;;;;5074947;28;20437;-71
2022/08/19 10:20:10;;;;;;;17.03;15.30;;;28.20;52.80;;;;;;5075687;28;20832;-71
2022/08/19 10:22:37;;;;;;;17.97;16.27;;;28.20;52.20;;;;;;5076005;28;20474;-71
2022/08/19 10:25:06;;;;;;;19.20;17.20;;;28.10;52.20;;;;;;5075237;28;20895;-70
2022/08/19 10:27:33;;;;;;;17.13;15.53;;;28.10;52.40;;;;;;5075563;28;20433;-70
2022/08/19 10:30:00;;;;;;;14.40;13.20;;;28.30;52.20;;;;;;5075591;28;20433;-70
2022/08/19 10:32:29;;;;;;;16.40;15.00;;;28.60;50.70;;;;;;5075320;28;20966;-71
2022/08/19 10:34:56;;;;;;;17.43;15.70;;;29.10;49.70;;;;;;5075383;28;20536;-71
2022/08/19 10:37:22;;;;;;;13.67;12.57;;;29.70;48.60;;;;;;5075344;28;20532;-71
2022/08/19 10:39:49;;;;;;;14.67;13.27;;;30.30;46.80;;;;;;5075253;28;20452;-71
2022/08/19 10:42:18;;;;;;;13.27;11.97;;;31.00;45.30;;;;;;5075375;28;20462;-71
2022/08/19 10:44:46;;;;;;;15.27;14.00;;;31.80;43.60;;;;;;5075121;28;20437;-71
2022/08/19 10:47:13;;;;;;;13.40;12.20;;;32.60;41.80;;;;;;5075165;28;20455;-71
2022/08/19 10:52:36;;;;;;;15.57;14.10;;;32.20;40.30;;;;;;5074688;28;20830;-71
2022/08/19 10:57:49;;;;;;;14.23;12.93;;;31.20;43.00;;;;;;5074663;28;20442;-71
2022/08/19 11:00:17;;;;;;;14.57;13.30;;;31.00;43.60;;;;;;5074900;28;20425;-71
2022/08/19 11:02:44;;;;;;;15.23;13.93;;;30.90;43.30;;;;;;5075012;28;20823;-71
2022/08/19 11:05:13;;;;;;;15.27;13.97;;;31.00;44.10;;;;;;5074984;28;20476;-73
2022/08/19 11:07:40;;;;;;;14.57;13.00;;;31.00;42.80;;;;;;5074725;28;20482;-73
2022/08/19 11:10:10;;;;;;;14.20;13.00;;;31.00;42.40;;;;;;5074813;28;20457;-73
2022/08/19 11:12:38;;;;;;;15.07;13.57;;;31.20;43.70;;;;;;5075946;28;20473;-73
2022/08/19 11:15:07;;;;;;;17.03;15.47;;;31.70;42.50;;;;;;5074811;28;20437;-73
2022/08/19 11:17:34;;;;;;;17.93;16.23;;;31.90;40.20;;;;;;5074669;28;20429;-73
2022/08/19 11:20:04;;;;;;;14.80;13.50;;;31.80;40.80;;;;;;5075073;28;20483;-73
2022/08/19 11:22:32;;;;;;;16.57;14.97;;;31.70;40.80;;;;;;5074619;28;20968;-73
2022/08/19 11:24:59;;;;;;;16.73;15.13;;;32.20;40.40;;;;;;5074277;28;20449;-73
2022/08/19 11:27:26;;;;;;;15.20;13.70;;;33.10;38.50;;;;;;5074557;28;20456;-73
2022/08/19 11:29:52;;;;;;;12.07;10.90;;;33.80;37.40;;;;;;5073837;28;20452;-74
2022/08/19 11:32:19;;;;;;;16.53;15.10;;;34.50;37.00;;;;;;5074752;28;20452;-72
2022/08/19 11:34:46;;;;;;;15.20;13.73;;;35.00;33.60;;;;;;5074325;28;20435;-74
2022/08/19 11:37:13;;;;;;;14.60;13.30;;;35.70;32.70;;;;;;5074684;28;20433;-74
2022/08/19 11:39:41;;;;;;;13.83;12.60;;;35.90;31.70;;;;;;5075235;28;20448;-73
2022/08/19 11:44:49;;;;;;;15.87;11.20;;;35.70;31.70;;;;;;5076713;28;20880;-72
2022/08/19 11:47:16;;;;;;;13.20;11.80;;;36.10;31.20;;;;;;5077155;28;20486;-72
2022/08/19 11:49:43;;;;;;;11.57;10.50;;;35.90;31.00;;;;;;5080263;28;20459;-71
2022/08/19 11:52:10;;;;;;;9.20;8.30;;;35.80;31.60;;;;;;5083988;28;20433;-72
2022/08/19 11:54:39;;;;;;;12.40;9.50;;;35.60;30.10;;;;;;5079111;28;20542;-73
2022/08/19 11:57:07;;;;;;;14.23;8.70;;;35.90;30.20;;;;;;5074109;28;20528;-73
2022/08/19 11:59:34;;;;;;;12.93;9.67;;;36.40;30.00;;;;;;5074775;28;20443;-73
2022/08/19 12:02:00;;;;;;;11.10;10.03;;;36.90;28.90;;;;;;5076128;28;20448;-72
2022/08/19 12:04:27;;;;;;;10.00;9.00;;;37.30;28.60;;;;;;5075358;28;20225;-72
2022/08/19 12:06:54;;;;;;;10.93;9.93;;;37.70;28.10;;;;;;5075385;28;20206;-72
2022/08/19 12:09:21;;;;;;;11.17;9.67;;;38.30;27.60;;;;;;5074910;28;20218;-71
2022/08/19 12:11:48;;;;;;;9.57;8.83;;;38.70;26.80;;;;;;5076157;28;20293;-73
2022/08/19 12:14:17;;;;;;;11.32;10.32;;;39.20;26.80;;;;;;5076303;28;20226;-72
2022/08/19 12:16:46;;;;;;;9.75;9.02;;;39.40;25.30;;;;;;5074984;28;20201;-72
2022/08/19 12:19:12;;;;;;;9.02;8.23;;;39.10;24.90;;;;;;5074406;28;20255;-72
2022/08/19 12:21:40;;;;;;;11.55;8.32;;;39.20;25.10;;;;;;5075822;28;20194;-72
2022/08/19 12:24:07;;;;;;;7.15;6.45;;;39.40;24.80;;;;;;5075206;28;20221;-74
2022/08/19 12:26:34;;;;;;;7.88;7.28;;;39.70;24.30;;;;;;5074737;28;20217;-73
2022/08/19 12:29:01;;;;;;;9.15;6.75;;;39.70;23.40;;;;;;5075509;28;20223;-74
2022/08/19 12:31:30;;;;;;;10.32;9.27;;;39.90;24.60;;;;;;5076562;28;20224;-72
2022/08/19 12:33:57;;;;;;;9.48;7.57;;;40.20;23.60;;;;;;5077136;28;20583;-73
2022/08/19 12:36:25;;;;;;;8.88;8.23;;;40.60;23.80;;;;;;5078620;28;20186;-72
2022/08/19 12:38:52;;;;;;;9.85;8.98;;;41.00;23.20;;;;;;5078748;28;20209;-72
2022/08/19 12:41:21;;;;;;;9.00;8.30;;;41.40;23.40;;;;;;5078989;28;20202;-72
2022/08/19 12:43:50;;;;;;;9.00;8.20;;;41.80;23.20;;;;;;5079092;28;20317;-71
2022/08/19 12:46:17;;;;;;;7.90;6.60;;;41.60;22.20;;;;;;5079772;28;20700;-71
2022/08/19 12:48:46;;;;;;;9.77;7.30;;;41.50;23.00;;;;;;5081981;28;20263;-72
2022/08/19 12:51:15;;;;;;;9.18;6.72;;;41.60;22.30;;;;;;5078317;28;20209;-72
2022/08/19 12:53:43;;;;;;;6.78;5.63;;;41.80;22.40;;;;;;5079802;28;20746;-72
2022/08/19 12:56:14;;;;;;;5.75;5.18;;;42.00;21.70;;;;;;5081334;28;20205;-72
2022/08/19 12:58:41;;;;;;;4.93;4.53;;;42.20;21.20;;;;;;5082229;28;20209;-72
2022/08/19 13:01:10;;;;;;;9.18;4.00;;;42.50;21.20;;;;;;5079191;28;20193;-72
2022/08/19 13:03:37;;;;;;;5.88;5.38;;;42.60;20.30;;;;;;5078480;28;20237;-71